Mahlon Sweet Field Eugene US
ICAO: KEUG
IATA: EUG
Category: Medium
Scheduled Services: Yes

Elevation: 374 ft
TransAlt. 18000 ft.

Airport Communications:
CASCADE APP/DEP:119.6
ATIS:125.225
EUGENE CLNC DEL:121.7
CTAF:118.9
GND:121.7
MC MINNVILLE RDO:122.3
EUGENE TWR:118.9
UNICOM:122.95

KEUG Zoom In..

Runways:

(A) RW 16L length 6000 ft width 150 ft
ILS 111.75 / hdg 163

(B) RW 16R length 8009 ft width 150 ft
ILS 110.10 / hdg 163

(C) RW 34L length 8009 ft width 150 ft
---- / hdg 343

(D) RW 34R length 6000 ft width 150 ft
---- / hdg 343

Location; KEUG
Day. 16 / Time. 17.54 Zulu
* Altimeter: 30.02
* Temperature: 28° c. 82.4°f.
* Wind from: 330° Speed 04 kn.
Dewpoint: 12° c.
Visibility: 10 Statute Miles.
Clouds: Few 25000 ft.

KEUG 161754Z 33004KT 10SM FEW250 28/12 A3002 RMK AO2 SLP162 T02780117 10278 20122 58004


Wind From 330°
Speed 04 kn.

 
 
jpsmedia.com for Web Design worldairports.se 2018   terms of use